createdAt,value
2018-10-09T01:15:22.035Z,8.97
2018-10-09T01:17:50.387Z,8.98
2018-10-09T01:26:14.021Z,8.90
2018-10-09T02:29:18.860Z,9.07
2018-10-09T02:31:47.147Z,9.02
2018-10-09T02:34:15.445Z,8.94
2018-10-09T02:36:43.710Z,8.87
2018-10-09T02:39:12.510Z,8.97
2018-10-09T02:41:40.781Z,8.86
2018-10-09T02:44:09.561Z,8.99
2018-10-09T02:46:37.821Z,8.71
2018-10-09T02:49:06.116Z,8.71
2018-10-09T02:51:34.403Z,8.71
2018-10-09T02:54:02.663Z,8.68
2018-10-09T02:56:30.954Z,8.73
2018-10-09T02:58:59.221Z,8.57
2018-10-09T03:01:27.517Z,8.65
2018-10-09T03:03:55.842Z,8.62
2018-10-09T03:06:24.097Z,8.50
2018-10-09T03:08:52.407Z,8.48
2018-10-09T03:11:20.684Z,8.25
2018-10-09T03:16:41.528Z,8.22
2018-10-09T03:19:19.174Z,8.31
2018-10-09T03:21:50.799Z,8.32
2018-10-09T03:24:32.206Z,8.39
2018-10-09T05:13:37.416Z,8.26
2018-10-09T05:16:06.050Z,8.34
2018-10-09T06:37:58.734Z,8.47
2018-10-09T06:40:27.031Z,8.55
2018-10-09T06:42:55.432Z,8.63
2018-10-09T06:45:23.688Z,8.77
2018-10-09T06:47:51.941Z,8.81
2018-10-09T06:50:20.185Z,8.90
2018-10-09T06:52:48.445Z,9.05
2018-10-09T06:55:16.714Z,9.00
2018-10-09T06:57:44.993Z,8.88
2018-10-09T07:00:13.289Z,8.90
2018-10-09T07:02:41.521Z,8.87
2018-10-09T07:05:09.776Z,8.92
2018-10-09T07:07:38.022Z,9.23
2018-10-09T07:10:06.410Z,9.33
2018-10-09T07:12:34.734Z,9.34
2018-10-09T07:21:04.785Z,9.87
2018-10-09T07:29:18.368Z,10.70
2018-10-09T07:31:46.661Z,10.63
2018-10-09T07:34:14.940Z,10.48
2018-10-09T07:36:43.194Z,10.54
2018-10-09T07:39:13.148Z,10.58
2018-10-09T07:41:41.730Z,10.60
2018-10-09T07:44:10.028Z,10.70
2018-10-09T07:46:38.269Z,10.67
2018-10-09T07:49:06.529Z,10.87
2018-10-09T07:51:35.695Z,11.27
2018-10-09T07:54:03.954Z,11.32
2018-10-09T07:56:32.242Z,11.72
2018-10-09T07:59:00.522Z,12.01
2018-10-09T08:01:28.793Z,12.53
2018-10-09T08:03:57.161Z,13.03
2018-10-09T08:06:25.425Z,12.78
2018-10-09T08:08:53.689Z,13.73
2018-10-09T08:11:21.976Z,13.83
2018-10-09T08:13:50.480Z,13.83
2018-10-09T08:16:18.816Z,14.18
2018-10-09T08:18:47.060Z,14.20
2018-10-09T08:21:16.014Z,14.43
2018-10-09T08:23:44.265Z,14.22
2018-10-09T09:15:09.067Z,15.02
2018-10-09T09:17:37.376Z,14.44
2018-10-09T09:20:05.688Z,14.15
2018-10-09T09:22:33.969Z,14.21
2018-10-09T09:25:02.226Z,13.86
2018-10-09T09:27:30.561Z,13.93
2018-10-09T09:29:58.741Z,14.24
2018-10-09T09:32:27.029Z,14.14
2018-10-09T09:34:55.341Z,13.97
2018-10-09T09:37:23.617Z,14.23
2018-10-09T09:39:51.885Z,14.31
2018-10-09T09:42:20.141Z,14.47
2018-10-09T09:44:48.389Z,14.75
2018-10-09T09:47:16.619Z,14.60
2018-10-09T09:49:44.870Z,14.93
2018-10-09T09:52:13.212Z,14.81
2018-10-09T09:54:41.417Z,15.06
2018-10-09T09:57:09.654Z,15.37
2018-10-09T09:59:37.905Z,16.14
2018-10-09T10:02:06.205Z,16.37
2018-10-09T10:04:34.475Z,16.05
2018-10-09T10:07:02.781Z,15.48
2018-10-09T10:09:31.055Z,15.11
2018-10-09T10:11:59.318Z,15.03
2018-10-09T10:17:20.486Z,15.01
2018-10-09T10:19:48.773Z,14.98
2018-10-09T10:22:17.033Z,14.93
2018-10-09T10:24:45.292Z,15.52
2018-10-09T10:27:13.569Z,15.98
2018-10-09T10:29:41.830Z,15.78
2018-10-09T10:32:10.112Z,15.85
2018-10-09T10:34:38.386Z,16.15
2018-10-09T10:37:06.885Z,16.08
2018-10-09T10:39:35.137Z,17.35
2018-10-09T10:42:03.454Z,17.35
2018-10-09T10:44:31.692Z,17.12
2018-10-09T10:46:59.941Z,17.24
2018-10-09T10:49:28.283Z,17.16
2018-10-09T10:51:56.484Z,16.96
2018-10-09T10:54:24.754Z,16.51
2018-10-09T10:56:53.007Z,16.46
2018-10-09T10:59:21.264Z,16.76
2018-10-09T11:01:49.603Z,16.85
2018-10-09T11:04:17.818Z,16.51
2018-10-09T11:06:46.099Z,16.51
2018-10-09T11:09:14.333Z,16.63
2018-10-09T11:11:42.601Z,16.45
2018-10-09T11:25:42.101Z,16.94
2018-10-09T11:28:10.365Z,16.91
2018-10-09T11:30:38.631Z,16.84
2018-10-09T11:33:07.082Z,16.96
2018-10-09T11:35:35.357Z,17.11
2018-10-09T11:38:03.600Z,16.84
2018-10-09T11:40:31.862Z,16.80
2018-10-09T11:43:00.127Z,16.67
2018-10-09T11:45:28.394Z,16.73
2018-10-09T11:47:56.665Z,16.64
2018-10-09T11:50:25.545Z,16.63
2018-10-09T11:52:53.962Z,16.44
2018-10-09T11:55:22.242Z,16.50
2018-10-09T11:57:50.490Z,16.87
2018-10-09T12:00:18.773Z,16.81
2018-10-09T12:02:47.067Z,16.60
2018-10-09T12:05:15.557Z,16.91
2018-10-09T12:07:43.854Z,16.68
2018-10-09T12:10:12.133Z,16.75
2018-10-09T13:30:10.917Z,20.19
2018-10-09T13:32:39.213Z,22.01
2018-10-09T13:35:07.482Z,21.83
2018-10-09T13:37:35.789Z,21.78
2018-10-09T13:40:04.126Z,22.30
2018-10-09T13:42:32.396Z,21.94
2018-10-09T13:45:00.665Z,20.62
2018-10-09T13:47:29.035Z,20.42
2018-10-09T13:49:57.225Z,20.07
2018-10-09T13:52:25.506Z,19.76
2018-10-09T13:54:53.761Z,19.48
2018-10-09T13:57:22.279Z,18.82
2018-10-09T13:59:50.334Z,18.73
2018-10-09T14:02:18.604Z,18.61
2018-10-09T14:04:47.090Z,18.58
2018-10-09T14:07:15.349Z,18.49
2018-10-09T14:09:43.674Z,19.28
2018-10-09T15:12:46.537Z,18.01
2018-10-09T15:26:45.875Z,17.96
2018-10-09T15:29:14.147Z,17.69
2018-10-09T15:31:42.370Z,17.83
2018-10-09T15:34:10.644Z,17.63
2018-10-09T15:36:38.917Z,17.64
2018-10-09T15:39:10.654Z,17.51
2018-10-09T15:41:42.014Z,17.27
2018-10-09T15:44:10.197Z,17.33
2018-10-09T15:46:38.481Z,17.19
2018-10-09T15:49:06.877Z,17.18
2018-10-09T15:51:35.153Z,17.22
2018-10-09T15:54:03.451Z,17.13
2018-10-09T15:56:31.793Z,17.10
2018-10-09T15:59:00.026Z,17.08
2018-10-09T16:01:28.302Z,17.07
2018-10-09T16:03:56.629Z,16.88
2018-10-09T16:06:24.913Z,16.66
2018-10-09T16:08:53.211Z,16.44
2018-10-09T16:11:21.507Z,16.38
2018-10-09T16:16:42.196Z,16.19
2018-10-09T16:22:03.452Z,16.15
2018-10-09T16:24:45.174Z,16.06
2018-10-09T16:27:13.482Z,15.96
2018-10-09T16:29:41.752Z,15.94
2018-10-09T16:32:10.057Z,15.85
2018-10-09T16:34:38.322Z,15.78
2018-10-09T16:37:06.592Z,15.72
2018-10-09T16:39:34.857Z,15.70
2018-10-09T16:42:03.096Z,15.59
2018-10-09T16:44:31.396Z,15.56
2018-10-09T16:47:04.306Z,15.52
2018-10-09T16:49:32.994Z,15.71
2018-10-09T16:52:01.272Z,15.49
2018-10-09T16:54:29.561Z,15.52
2018-10-09T16:56:57.830Z,15.58
2018-10-09T16:59:26.102Z,15.54
2018-10-09T17:01:54.408Z,15.42
2018-10-09T17:04:22.750Z,15.33
2018-10-09T17:06:51.066Z,15.35
2018-10-09T17:09:19.305Z,15.28
2018-10-09T17:11:47.582Z,15.13
2018-10-09T17:17:09.488Z,15.01
2018-10-09T17:19:37.776Z,14.92
2018-10-09T17:22:06.057Z,15.01
2018-10-09T17:24:34.318Z,15.05
2018-10-09T17:27:02.580Z,14.91
2018-10-09T17:29:30.861Z,14.88
2018-10-09T17:31:59.124Z,14.73
2018-10-09T17:34:27.417Z,14.59
2018-10-09T17:36:55.685Z,14.67
2018-10-09T17:39:24.048Z,14.52
2018-10-09T17:41:52.196Z,14.58
2018-10-09T17:44:20.507Z,14.53
2018-10-09T17:46:48.824Z,14.48
2018-10-09T17:49:17.082Z,14.48
2018-10-09T17:51:45.349Z,14.47
2018-10-09T17:54:13.620Z,14.36
2018-10-09T17:56:41.869Z,14.29
2018-10-09T17:59:10.138Z,14.32
2018-10-09T18:01:38.444Z,14.45
2018-10-09T18:04:07.124Z,14.42
2018-10-09T18:06:35.377Z,14.44
2018-10-09T18:17:41.058Z,14.98
2018-10-09T18:20:09.349Z,15.06
2018-10-09T18:22:37.602Z,15.08
2018-10-09T18:25:06.256Z,14.86
2018-10-09T18:27:34.513Z,14.47
2018-10-09T18:30:02.784Z,14.40
2018-10-09T18:32:31.124Z,14.53
2018-10-09T18:34:59.952Z,14.72
2018-10-09T18:37:28.176Z,14.88
2018-10-09T18:39:56.472Z,14.85
2018-10-09T18:42:24.730Z,14.76
2018-10-09T18:44:52.949Z,14.71
2018-10-09T18:47:26.388Z,14.86
2018-10-09T18:49:54.657Z,14.95
2018-10-09T18:52:22.941Z,14.89
2018-10-09T18:54:51.208Z,14.92
2018-10-09T18:57:19.461Z,14.84
2018-10-09T18:59:47.915Z,14.59
2018-10-09T19:02:16.472Z,14.55
2018-10-09T19:04:44.789Z,14.40
2018-10-09T19:07:13.129Z,14.37
2018-10-09T19:09:41.419Z,14.37
2018-10-09T19:12:10.105Z,14.27
2018-10-09T19:17:30.936Z,14.51
2018-10-09T19:19:59.261Z,14.50
2018-10-09T19:22:27.546Z,14.30
2018-10-09T19:24:55.822Z,14.39
2018-10-09T19:27:24.066Z,14.44
2018-10-09T19:29:52.296Z,14.45
2018-10-09T19:32:20.567Z,14.44
2018-10-09T19:34:48.824Z,14.31
2018-10-09T19:37:17.106Z,14.18
2018-10-09T19:39:45.453Z,14.11
2018-10-09T19:42:13.653Z,13.84
2018-10-09T19:44:41.943Z,13.68
2018-10-09T19:47:10.177Z,13.64
2018-10-09T19:49:38.455Z,13.60
2018-10-09T19:52:06.744Z,13.36
2018-10-09T19:54:35.040Z,13.43
2018-10-09T19:57:03.341Z,13.36
2018-10-09T19:59:31.592Z,13.44
2018-10-09T20:01:59.858Z,13.39
2018-10-09T20:04:28.142Z,13.40
2018-10-09T20:06:56.412Z,13.33
2018-10-09T20:09:24.667Z,13.34
2018-10-09T20:11:53.000Z,13.33
2018-10-09T20:14:21.310Z,13.26
2018-10-09T20:25:28.109Z,13.29
2018-10-09T21:13:55.356Z,12.64
2018-10-09T21:16:23.636Z,12.55
2018-10-09T21:18:51.919Z,12.45
2018-10-09T21:24:15.793Z,12.42
2018-10-09T21:27:03.386Z,12.36
2018-10-09T21:29:31.762Z,12.34
2018-10-09T21:32:00.002Z,12.43
2018-10-09T21:34:28.310Z,12.38
2018-10-09T21:36:56.590Z,12.39
2018-10-09T21:39:24.870Z,12.44
2018-10-09T21:41:53.129Z,12.40
2018-10-09T21:44:21.384Z,12.37
2018-10-09T21:46:49.632Z,12.40
2018-10-09T21:49:17.906Z,12.31
2018-10-09T21:51:46.206Z,12.27
2018-10-09T21:54:14.463Z,12.28
2018-10-09T21:56:42.745Z,12.31
2018-10-09T21:59:10.987Z,12.08
2018-10-09T22:01:39.257Z,12.07
2018-10-09T22:04:07.682Z,12.21
2018-10-09T22:06:35.969Z,12.06
2018-10-09T22:09:05.793Z,11.95
2018-10-09T22:11:34.062Z,11.93
2018-10-09T22:14:02.336Z,11.81
2018-10-09T22:16:30.607Z,11.93
2018-10-09T22:18:58.884Z,11.98
2018-10-09T22:21:27.166Z,11.99
2018-10-09T22:23:56.462Z,11.97
2018-10-09T22:26:24.765Z,12.12
2018-10-09T22:28:53.037Z,12.06
2018-10-09T22:31:21.338Z,12.10
2018-10-09T22:33:49.648Z,12.12
2018-10-09T22:36:17.924Z,12.02
2018-10-09T22:38:46.188Z,11.98
2018-10-09T22:41:14.442Z,12.03
2018-10-09T22:43:42.722Z,12.01
2018-10-09T22:46:11.013Z,11.95
2018-10-09T22:48:39.268Z,11.96
2018-10-09T22:51:07.652Z,11.89
2018-10-09T22:53:36.017Z,11.90
2018-10-09T22:56:04.280Z,11.93
2018-10-09T22:58:32.609Z,11.88
2018-10-09T23:01:00.899Z,11.88
2018-10-09T23:03:29.173Z,11.78
2018-10-09T23:05:57.453Z,11.81
2018-10-09T23:08:25.725Z,11.79
2018-10-09T23:10:54.004Z,11.73
2018-10-09T23:22:00.165Z,11.62
2018-10-09T23:24:28.419Z,11.64
2018-10-09T23:26:56.740Z,11.66
2018-10-09T23:29:25.025Z,11.62
2018-10-09T23:31:53.310Z,11.56
2018-10-09T23:34:21.564Z,11.58
2018-10-09T23:36:49.829Z,11.58
2018-10-09T23:39:18.121Z,11.58
2018-10-09T23:41:46.422Z,11.62
2018-10-09T23:44:14.701Z,11.57
2018-10-09T23:46:42.987Z,11.57
2018-10-09T23:49:11.258Z,11.49
2018-10-09T23:51:39.539Z,11.32
2018-10-09T23:54:08.374Z,11.33
2018-10-09T23:56:36.648Z,11.33
2018-10-09T23:59:04.959Z,11.13
